createdAt,value
2023-01-20T00:02:25.405Z,3.45
2023-01-20T00:04:53.682Z,3.87
2023-01-20T00:07:21.952Z,4.03
2023-01-20T00:10:03.756Z,4.50
2023-01-20T00:12:33.590Z,4.72
2023-01-20T00:15:01.792Z,3.20
2023-01-20T00:17:29.922Z,4.28
2023-01-20T00:20:00.830Z,4.35
2023-01-20T00:22:28.873Z,4.10
2023-01-20T00:24:56.716Z,4.35
2023-01-20T00:27:24.928Z,3.10
2023-01-20T00:30:13.984Z,5.40
2023-01-20T00:32:44.110Z,4.00
2023-01-20T00:35:13.211Z,3.98
2023-01-20T00:37:55.854Z,4.58
2023-01-20T00:40:23.534Z,4.35
2023-01-20T00:42:51.681Z,4.53
2023-01-20T00:45:20.078Z,4.33
2023-01-20T00:48:00.860Z,3.95
2023-01-20T00:50:29.594Z,3.83
2023-01-20T00:52:57.690Z,4.10
2023-01-20T00:55:25.463Z,4.85
2023-01-20T00:57:53.251Z,3.10
2023-01-20T01:00:21.936Z,3.75
2023-01-20T01:03:13.492Z,4.90
2023-01-20T01:05:42.811Z,3.15
2023-01-20T01:08:10.687Z,5.90
2023-01-20T01:10:38.674Z,3.60
2023-01-20T01:13:06.725Z,4.40
2023-01-20T01:15:34.730Z,4.72
2023-01-20T01:18:02.545Z,3.72
2023-01-20T01:20:31.981Z,3.72
2023-01-20T01:22:59.669Z,4.95
2023-01-20T01:25:28.335Z,5.10
2023-01-20T01:27:56.499Z,4.28
2023-01-20T01:30:33.645Z,4.78
2023-01-20T01:33:01.252Z,3.75
2023-01-20T01:35:29.296Z,5.15
2023-01-20T01:38:14.271Z,3.45
2023-01-20T01:43:29.984Z,4.87
2023-01-20T01:46:01.174Z,3.67
2023-01-20T01:48:42.042Z,3.42
2023-01-20T01:51:13.712Z,5.65
2023-01-20T01:53:45.165Z,4.17
2023-01-20T01:56:15.170Z,5.25
2023-01-20T01:58:46.537Z,4.55
2023-01-20T02:01:14.206Z,4.08
2023-01-20T02:03:57.815Z,3.67
2023-01-20T02:06:28.665Z,4.47
2023-01-20T02:08:57.322Z,4.47
2023-01-20T02:11:25.220Z,4.30
2023-01-20T02:13:53.156Z,3.62
2023-01-20T02:16:33.124Z,4.10
2023-01-20T02:19:04.654Z,4.80
2023-01-20T02:21:45.678Z,3.33
2023-01-20T02:24:22.934Z,7.15
2023-01-20T02:27:06.924Z,4.30
2023-01-20T02:29:48.661Z,4.22
2023-01-20T02:32:30.380Z,3.05
2023-01-20T02:35:25.668Z,4.50
2023-01-20T02:38:03.309Z,4.00
2023-01-20T02:40:51.812Z,2.95
2023-01-20T02:43:57.210Z,3.98
2023-01-20T02:46:29.015Z,2.47
2023-01-20T02:49:00.505Z,4.28
2023-01-20T02:51:33.660Z,3.87
2023-01-20T02:54:04.615Z,3.55
2023-01-20T02:56:33.596Z,4.15
2023-01-20T02:59:15.741Z,2.75
2023-01-20T03:01:50.615Z,2.77
2023-01-20T03:04:22.536Z,2.92
2023-01-20T03:06:53.062Z,4.95
2023-01-20T03:09:25.547Z,3.45
2023-01-20T03:11:57.028Z,2.52
2023-01-20T03:14:25.406Z,3.35
2023-01-20T03:16:53.375Z,2.80
2023-01-20T03:19:21.483Z,2.42
2023-01-20T03:21:49.489Z,2.45
2023-01-20T03:24:17.269Z,2.72
2023-01-20T03:26:48.489Z,4.58
2023-01-20T03:29:16.593Z,2.20
2023-01-20T03:31:50.685Z,2.70
2023-01-20T03:37:06.013Z,3.33
2023-01-20T03:39:34.857Z,3.90
2023-01-20T03:42:36.312Z,2.58
2023-01-20T03:45:14.348Z,3.52
2023-01-20T03:47:54.785Z,2.95
2023-01-20T03:50:50.009Z,2.55
2023-01-20T03:53:30.499Z,4.80
2023-01-20T03:56:17.311Z,2.87
2023-01-20T03:58:52.624Z,2.75
2023-01-20T04:01:25.481Z,2.35
2023-01-20T04:03:55.204Z,2.60
2023-01-20T04:06:36.522Z,2.12
2023-01-20T04:09:12.051Z,2.52
2023-01-20T04:11:40.555Z,2.77
2023-01-20T04:14:12.794Z,2.37
2023-01-20T04:16:54.202Z,2.12
2023-01-20T04:19:21.982Z,2.35
2023-01-20T04:22:03.357Z,2.52
2023-01-20T04:24:34.960Z,2.25
2023-01-20T04:27:16.051Z,3.42
2023-01-20T04:29:43.841Z,3.35
2023-01-20T04:32:13.704Z,4.53
2023-01-20T04:34:41.667Z,2.98
2023-01-20T04:37:09.760Z,2.42
2023-01-20T04:39:38.334Z,3.33
2023-01-20T04:42:06.521Z,2.95
2023-01-20T04:44:34.665Z,2.70
2023-01-20T04:47:02.765Z,2.52
2023-01-20T04:49:30.351Z,4.75
2023-01-20T04:51:57.886Z,3.22
2023-01-20T04:54:26.212Z,3.08
2023-01-20T04:56:53.917Z,4.53
2023-01-20T04:59:23.156Z,4.08
2023-01-20T05:01:51.666Z,2.67
2023-01-20T05:04:19.821Z,5.25
2023-01-20T05:06:47.627Z,3.17
2023-01-20T05:09:17.695Z,4.80
2023-01-20T05:11:45.552Z,6.28
2023-01-20T05:14:14.254Z,3.92
2023-01-20T05:16:41.515Z,2.90
2023-01-20T05:19:12.800Z,2.95
2023-01-20T05:21:40.273Z,4.15
2023-01-20T05:24:08.828Z,2.40
2023-01-20T05:26:40.300Z,3.45
2023-01-20T05:29:09.648Z,3.87
2023-01-20T05:31:39.002Z,3.70
2023-01-20T05:34:07.441Z,5.40
2023-01-20T05:36:35.157Z,3.67
2023-01-20T05:39:03.134Z,2.58
2023-01-20T05:41:30.811Z,3.47
2023-01-20T05:44:01.453Z,3.85
2023-01-20T05:46:29.628Z,3.00
2023-01-20T05:48:57.480Z,3.17
2023-01-20T05:51:25.736Z,5.28
2023-01-20T05:53:53.629Z,3.45
2023-01-20T05:56:21.654Z,2.62
2023-01-20T05:58:50.210Z,3.12
2023-01-20T06:01:18.038Z,3.55
2023-01-20T06:03:45.932Z,4.00
2023-01-20T06:06:18.154Z,4.65
2023-01-20T06:08:46.691Z,3.35
2023-01-20T06:11:15.017Z,4.75
2023-01-20T06:13:43.967Z,4.12
2023-01-20T06:16:11.860Z,4.65
2023-01-20T06:18:39.861Z,3.50
2023-01-20T06:21:07.746Z,7.70
2023-01-20T06:23:35.530Z,4.47
2023-01-20T06:26:09.573Z,4.58
2023-01-20T06:28:41.391Z,7.15
2023-01-20T06:31:15.877Z,5.25
2023-01-20T06:33:45.201Z,2.92
2023-01-20T06:36:17.997Z,3.50
2023-01-20T06:38:48.153Z,3.33
2023-01-20T06:41:17.279Z,3.70
2023-01-20T06:43:58.569Z,4.28
2023-01-20T06:46:27.791Z,5.78
2023-01-20T06:49:01.019Z,5.40
2023-01-20T06:51:30.759Z,5.60
2023-01-20T06:53:58.614Z,4.87
2023-01-20T06:56:26.198Z,7.33
2023-01-20T06:58:54.049Z,4.40
2023-01-20T07:01:27.507Z,3.77
2023-01-20T07:03:56.008Z,4.30
2023-01-20T07:06:27.702Z,3.20
2023-01-20T07:09:15.433Z,3.98
2023-01-20T07:11:42.920Z,11.18
2023-01-20T07:14:11.434Z,5.00
2023-01-20T07:16:40.543Z,6.40
2023-01-20T07:19:08.003Z,5.65
2023-01-20T07:21:36.264Z,4.08
2023-01-20T07:24:09.690Z,5.53
2023-01-20T07:26:37.943Z,6.05
2023-01-20T07:29:05.830Z,5.67
2023-01-20T07:31:34.629Z,5.45
2023-01-20T07:34:02.180Z,4.60
2023-01-20T07:36:29.869Z,7.47
2023-01-20T07:38:58.379Z,4.60
2023-01-20T07:41:26.122Z,6.15
2023-01-20T07:43:54.358Z,6.83
2023-01-20T07:46:22.473Z,6.30
2023-01-20T07:48:49.994Z,6.28
2023-01-20T07:51:18.299Z,5.97
2023-01-20T07:53:48.812Z,4.80
2023-01-20T07:56:25.202Z,9.80
2023-01-20T07:58:54.188Z,4.80
2023-01-20T08:01:25.772Z,6.45
2023-01-20T08:03:54.369Z,8.18
2023-01-20T08:06:24.849Z,5.12
2023-01-20T08:08:53.700Z,7.30
2023-01-20T08:11:22.906Z,5.83
2023-01-20T08:13:50.765Z,7.22
2023-01-20T08:16:19.015Z,6.85
2023-01-20T08:18:47.234Z,6.42
2023-01-20T08:21:22.072Z,5.47
2023-01-20T08:23:50.559Z,7.53
2023-01-20T08:26:40.153Z,6.20
2023-01-20T08:29:11.405Z,9.73
2023-01-20T08:31:39.726Z,6.50
2023-01-20T08:34:07.632Z,8.98
2023-01-20T08:36:39.874Z,6.90
2023-01-20T08:39:10.333Z,5.05
2023-01-20T08:41:40.324Z,5.00
2023-01-20T08:44:28.634Z,6.05
2023-01-20T08:46:57.879Z,8.38
2023-01-20T08:49:26.029Z,4.03
2023-01-20T08:51:56.440Z,4.80
2023-01-20T08:54:24.685Z,3.95
2023-01-20T08:56:53.422Z,6.50
2023-01-20T08:59:21.701Z,15.68
2023-01-20T09:01:53.234Z,12.28
2023-01-20T09:04:34.861Z,18.23
2023-01-20T09:07:03.690Z,19.30
2023-01-20T09:09:31.583Z,10.60
2023-01-20T09:11:59.409Z,10.28
2023-01-20T09:14:30.655Z,10.00
2023-01-20T09:16:59.131Z,9.00
2023-01-20T09:19:29.796Z,8.78
2023-01-20T09:22:04.396Z,7.92
2023-01-20T09:24:35.728Z,8.53
2023-01-20T09:27:07.137Z,7.50
2023-01-20T09:29:35.090Z,10.20
2023-01-20T09:32:04.603Z,16.82
2023-01-20T09:34:32.148Z,9.35
2023-01-20T09:37:03.847Z,7.45
2023-01-20T09:39:50.693Z,7.00
2023-01-20T09:42:55.766Z,6.28
2023-01-20T09:45:48.023Z,6.53
2023-01-20T09:48:50.602Z,5.12
2023-01-20T09:51:50.759Z,5.22
2023-01-20T09:54:23.095Z,2.25
2023-01-20T09:56:54.903Z,2.65
2023-01-20T09:59:27.363Z,3.22
2023-01-20T10:01:58.868Z,2.40
2023-01-20T10:04:32.269Z,2.52
2023-01-20T10:07:10.070Z,2.40
2023-01-20T10:10:00.384Z,1.77
2023-01-20T10:12:35.361Z,2.60
2023-01-20T10:15:25.422Z,2.75
2023-01-20T10:21:18.450Z,2.40
2023-01-20T10:23:56.180Z,2.17
2023-01-20T10:26:48.953Z,2.67
2023-01-20T10:29:20.425Z,1.98
2023-01-20T10:31:56.169Z,2.33
2023-01-20T10:34:23.933Z,2.58
2023-01-20T10:39:41.209Z,2.27
2023-01-20T10:42:14.642Z,2.08
2023-01-20T10:44:42.712Z,2.10
2023-01-20T10:47:14.560Z,1.95
2023-01-20T10:50:10.024Z,3.67
2023-01-20T10:52:44.698Z,2.60
2023-01-20T10:55:40.469Z,2.37
2023-01-20T10:58:30.446Z,2.05
2023-01-20T11:01:01.947Z,2.70
2023-01-20T11:03:33.668Z,2.45
2023-01-20T11:06:02.437Z,2.15
2023-01-20T11:08:30.388Z,3.08
2023-01-20T11:11:01.351Z,5.45
2023-01-20T11:13:29.075Z,5.22
2023-01-20T11:16:01.007Z,3.10
2023-01-20T11:18:53.274Z,3.25
2023-01-20T11:21:26.395Z,16.65
2023-01-20T11:23:56.432Z,3.75
2023-01-20T11:26:36.032Z,2.87
2023-01-20T11:29:13.407Z,4.30
2023-01-20T11:31:47.969Z,7.22
2023-01-20T11:34:36.583Z,7.15
2023-01-20T11:37:19.974Z,8.60
2023-01-20T11:40:03.343Z,5.83
2023-01-20T11:42:36.724Z,5.00
2023-01-20T11:45:20.843Z,3.45
2023-01-20T11:47:37.580Z,4.60
2023-01-20T11:50:09.173Z,3.95
2023-01-20T11:52:47.542Z,4.08
2023-01-20T11:55:28.012Z,3.85
2023-01-20T11:57:59.222Z,5.08
2023-01-20T12:00:30.960Z,6.00
2023-01-20T12:03:37.253Z,4.65
2023-01-20T12:06:29.568Z,5.53
2023-01-20T12:09:07.982Z,3.90
2023-01-20T12:11:39.394Z,4.25
2023-01-20T12:14:25.737Z,6.30
2023-01-20T12:17:50.587Z,4.12
2023-01-20T12:20:25.220Z,4.70
2023-01-20T12:23:06.417Z,4.75
2023-01-20T12:25:54.544Z,4.70
2023-01-20T12:28:41.599Z,5.55
2023-01-20T12:31:13.725Z,4.37
2023-01-20T12:33:50.836Z,4.85
2023-01-20T12:36:46.821Z,5.10
2023-01-20T12:39:39.487Z,5.85
2023-01-20T12:42:14.805Z,4.67
2023-01-20T12:44:52.322Z,4.83
2023-01-20T12:47:48.277Z,6.17
2023-01-20T12:50:40.923Z,4.87
2023-01-20T12:53:46.457Z,8.05
2023-01-20T12:56:44.028Z,7.05
2023-01-20T12:59:25.887Z,4.30
2023-01-20T13:02:06.567Z,5.35
2023-01-20T13:04:41.396Z,8.20
2023-01-20T13:10:08.517Z,6.65
2023-01-20T13:12:46.705Z,5.53
2023-01-20T13:15:29.537Z,5.15
2023-01-20T13:18:29.896Z,5.37
2023-01-20T13:20:58.443Z,5.17
2023-01-20T13:23:32.421Z,5.37
2023-01-20T13:28:30.561Z,7.92
2023-01-20T13:31:00.128Z,5.87
2023-01-20T13:33:37.965Z,5.28
2023-01-20T13:36:18.063Z,4.30
2023-01-20T13:38:54.275Z,5.85
2023-01-20T13:41:48.837Z,5.50
2023-01-20T13:44:37.211Z,4.35
2023-01-20T13:47:09.987Z,4.42
2023-01-20T13:49:54.952Z,5.25
2023-01-20T13:52:52.484Z,6.75
2023-01-20T13:55:45.489Z,6.10
2023-01-20T13:58:33.656Z,6.47
2023-01-20T14:01:04.619Z,4.62
2023-01-20T14:03:35.760Z,6.00
2023-01-20T14:06:07.373Z,4.25
2023-01-20T14:08:49.626Z,6.58
2023-01-20T14:11:21.947Z,5.12
2023-01-20T14:13:58.630Z,5.15
2023-01-20T14:16:35.481Z,5.60
2023-01-20T14:19:30.525Z,7.50
2023-01-20T14:22:03.137Z,5.50
2023-01-20T14:24:34.632Z,5.53
2023-01-20T14:27:17.999Z,7.10
2023-01-20T14:29:47.424Z,5.05
2023-01-20T14:32:28.841Z,4.65
2023-01-20T14:34:57.408Z,4.12
2023-01-20T14:37:34.859Z,4.10
2023-01-20T14:40:15.866Z,3.42
2023-01-20T14:42:47.989Z,3.70
2023-01-20T14:45:21.231Z,3.65
2023-01-20T14:47:49.721Z,5.22
2023-01-20T14:50:20.329Z,3.98
2023-01-20T14:52:48.231Z,3.87
2023-01-20T14:55:34.459Z,4.37
2023-01-20T14:58:12.531Z,6.75
2023-01-20T15:00:46.604Z,3.92
2023-01-20T15:03:21.203Z,4.20
2023-01-20T15:08:37.829Z,3.77
2023-01-20T15:11:22.044Z,5.10
2023-01-20T15:13:59.386Z,4.87
2023-01-20T15:16:45.223Z,8.30
2023-01-20T15:19:30.450Z,5.30
2023-01-20T15:22:17.050Z,4.25
2023-01-20T15:24:47.601Z,3.87
2023-01-20T15:27:25.184Z,3.80
2023-01-20T15:30:06.230Z,5.90
2023-01-20T15:32:34.407Z,4.62
2023-01-20T15:35:04.737Z,7.25
2023-01-20T15:37:33.053Z,6.62
2023-01-20T15:40:01.362Z,8.30
2023-01-20T15:42:29.070Z,8.43
2023-01-20T15:45:00.373Z,7.97
2023-01-20T15:47:30.641Z,6.85
2023-01-20T15:49:59.064Z,5.55
2023-01-20T15:52:27.204Z,7.17
2023-01-20T15:54:55.635Z,5.67
2023-01-20T15:57:23.687Z,5.55
2023-01-20T15:59:52.094Z,6.83
2023-01-20T16:02:22.299Z,6.50
2023-01-20T16:04:50.677Z,6.03
2023-01-20T16:07:20.433Z,8.23
2023-01-20T16:09:48.332Z,10.88
2023-01-20T16:12:18.728Z,8.45
2023-01-20T16:14:46.666Z,9.33
2023-01-20T16:17:21.922Z,7.65
2023-01-20T16:19:50.463Z,10.60
2023-01-20T16:22:18.485Z,6.28
2023-01-20T16:24:48.331Z,7.12
2023-01-20T16:27:23.340Z,7.05
2023-01-20T16:29:51.596Z,5.60
2023-01-20T16:32:22.396Z,6.00
2023-01-20T16:34:51.483Z,8.23
2023-01-20T16:37:39.510Z,8.83
2023-01-20T16:40:08.046Z,6.58
2023-01-20T16:42:37.037Z,7.30
2023-01-20T16:45:05.591Z,7.45
2023-01-20T16:47:34.503Z,9.98
2023-01-20T16:50:02.756Z,13.03
2023-01-20T16:52:30.071Z,6.97
2023-01-20T16:54:58.270Z,8.20
2023-01-20T16:57:28.801Z,10.60
2023-01-20T16:59:57.825Z,6.80
2023-01-20T17:02:25.998Z,6.97
2023-01-20T17:04:56.869Z,8.03
2023-01-20T17:07:24.861Z,7.78
2023-01-20T17:09:53.098Z,8.65
2023-01-20T17:12:22.923Z,7.65
2023-01-20T17:14:51.393Z,9.38
2023-01-20T17:17:23.061Z,6.87
2023-01-20T17:19:50.999Z,8.40
2023-01-20T17:22:19.629Z,10.60
2023-01-20T17:27:36.961Z,9.35
2023-01-20T17:30:08.080Z,7.40
2023-01-20T17:32:37.072Z,7.28
2023-01-20T17:35:05.930Z,12.63
2023-01-20T17:37:34.307Z,8.63
2023-01-20T17:40:25.281Z,8.63
2023-01-20T17:43:08.395Z,9.20
2023-01-20T17:45:36.649Z,7.90
2023-01-20T17:48:18.085Z,6.90
2023-01-20T17:50:46.339Z,6.53
2023-01-20T17:53:15.305Z,9.15
2023-01-20T17:56:10.946Z,11.78
2023-01-20T17:58:26.381Z,9.50
2023-01-20T18:00:54.043Z,9.03
2023-01-20T18:03:21.840Z,9.25
2023-01-20T18:05:49.977Z,9.73
2023-01-20T18:08:19.495Z,10.88
2023-01-20T18:10:47.654Z,12.55
2023-01-20T18:13:15.980Z,12.30
2023-01-20T18:15:44.602Z,11.95
2023-01-20T18:18:13.853Z,14.87
2023-01-20T18:20:41.407Z,18.55
2023-01-20T18:23:09.263Z,15.05
2023-01-20T18:25:40.526Z,10.48
2023-01-20T18:28:08.598Z,10.60
2023-01-20T18:30:37.186Z,7.58
2023-01-20T18:33:04.898Z,10.15
2023-01-20T18:35:32.711Z,9.03
2023-01-20T18:38:06.411Z,10.32
2023-01-20T18:40:35.836Z,10.58
2023-01-20T18:43:03.686Z,7.22
2023-01-20T18:45:35.126Z,8.48
2023-01-20T18:48:02.948Z,9.25
2023-01-20T18:50:30.503Z,7.12
2023-01-20T18:53:09.581Z,10.30
2023-01-20T18:55:37.700Z,8.00
2023-01-20T18:58:05.695Z,8.63
2023-01-20T19:00:33.917Z,8.20
2023-01-20T19:03:02.042Z,8.70
2023-01-20T19:05:32.342Z,7.00
2023-01-20T19:08:00.171Z,9.68
2023-01-20T19:10:27.914Z,7.62
2023-01-20T19:12:55.387Z,8.18
2023-01-20T19:15:26.917Z,8.48
2023-01-20T19:17:55.305Z,8.20
2023-01-20T19:20:23.530Z,13.05
2023-01-20T19:22:52.002Z,6.83
2023-01-20T19:25:19.886Z,8.40
2023-01-20T19:28:10.531Z,7.10
2023-01-20T19:30:41.657Z,8.03
2023-01-20T19:33:14.273Z,7.75
2023-01-20T19:35:42.382Z,10.10
2023-01-20T19:38:10.552Z,6.75
2023-01-20T19:40:39.626Z,7.62
2023-01-20T19:43:11.301Z,8.28
2023-01-20T19:45:45.926Z,8.88
2023-01-20T19:48:15.633Z,8.18
2023-01-20T19:50:44.624Z,8.73
2023-01-20T19:53:15.633Z,7.58
2023-01-20T19:55:45.858Z,7.92
2023-01-20T19:58:23.115Z,8.18
2023-01-20T20:00:51.237Z,8.93
2023-01-20T20:03:32.605Z,7.08
2023-01-20T20:06:00.602Z,8.30
2023-01-20T20:08:28.487Z,8.13
2023-01-20T20:10:56.831Z,7.08
2023-01-20T20:13:32.176Z,7.00
2023-01-20T20:18:35.207Z,8.30
2023-01-20T20:21:07.328Z,11.00
2023-01-20T20:23:34.998Z,6.87
2023-01-20T20:26:03.820Z,7.67
2023-01-20T20:28:31.969Z,8.25
2023-01-20T20:31:04.732Z,8.15
2023-01-20T20:33:32.845Z,9.13
2023-01-20T20:36:16.880Z,9.75
2023-01-20T20:38:51.030Z,6.33
2023-01-20T20:41:19.047Z,7.30
2023-01-20T20:43:48.265Z,7.65
2023-01-20T20:46:34.689Z,8.53
2023-01-20T20:49:02.726Z,8.23
2023-01-20T20:51:53.409Z,7.15
2023-01-20T20:54:21.423Z,6.72
2023-01-20T20:56:50.037Z,7.72
2023-01-20T20:59:22.538Z,7.65
2023-01-20T21:02:05.007Z,7.17
2023-01-20T21:04:34.131Z,6.30
2023-01-20T21:07:16.386Z,6.75
2023-01-20T21:09:45.747Z,7.05
2023-01-20T21:12:14.692Z,6.75
2023-01-20T21:14:42.319Z,5.50
2023-01-20T21:17:10.306Z,6.28
2023-01-20T21:19:38.761Z,5.53
2023-01-20T21:22:07.160Z,5.28
2023-01-20T21:24:35.521Z,6.60
2023-01-20T21:27:06.788Z,5.75
2023-01-20T21:29:34.888Z,6.75
2023-01-20T21:32:02.706Z,7.20
2023-01-20T21:34:30.383Z,4.35
2023-01-20T21:36:58.934Z,7.83
2023-01-20T21:39:27.115Z,6.12
2023-01-20T21:41:54.812Z,8.30
2023-01-20T21:44:28.784Z,5.97
2023-01-20T21:47:00.481Z,7.42
2023-01-20T21:49:46.633Z,5.08
2023-01-20T21:52:41.033Z,7.55
2023-01-20T21:55:13.910Z,5.83
2023-01-20T21:57:41.772Z,7.17
2023-01-20T22:00:10.905Z,4.97
2023-01-20T22:02:44.581Z,6.53
2023-01-20T22:05:13.613Z,6.10
2023-01-20T22:07:42.049Z,4.60
2023-01-20T22:10:11.516Z,4.22
2023-01-20T22:12:39.638Z,4.87
2023-01-20T22:15:12.811Z,5.53
2023-01-20T22:17:41.806Z,4.47
2023-01-20T22:20:11.954Z,6.00
2023-01-20T22:22:42.272Z,4.33
2023-01-20T22:25:11.187Z,4.67
2023-01-20T22:27:39.122Z,5.70
2023-01-20T22:30:08.043Z,3.62
2023-01-20T22:32:36.574Z,4.97
2023-01-20T22:35:04.901Z,4.87
2023-01-20T22:37:32.733Z,4.80
2023-01-20T22:40:02.240Z,4.72
2023-01-20T22:42:30.040Z,6.47
2023-01-20T22:44:57.800Z,4.62
2023-01-20T22:47:25.544Z,4.58
2023-01-20T22:49:56.078Z,8.48
2023-01-20T22:52:25.331Z,4.45
2023-01-20T22:54:53.887Z,4.65
2023-01-20T22:57:21.428Z,6.10
2023-01-20T22:59:51.518Z,6.30
2023-01-20T23:02:19.406Z,3.20
2023-01-20T23:04:47.239Z,6.53
2023-01-20T23:07:14.943Z,4.97
2023-01-20T23:09:43.232Z,4.70
2023-01-20T23:12:10.751Z,4.40
2023-01-20T23:14:40.908Z,5.45
2023-01-20T23:17:09.177Z,4.25
2023-01-20T23:19:36.762Z,3.35
2023-01-20T23:22:04.423Z,2.72
2023-01-20T23:24:32.689Z,3.72
2023-01-20T23:27:00.544Z,4.00
2023-01-20T23:29:28.773Z,3.37
2023-01-20T23:31:56.749Z,6.65
2023-01-20T23:34:24.975Z,5.47
2023-01-20T23:36:53.003Z,3.67
2023-01-20T23:39:20.821Z,4.50
2023-01-20T23:41:48.633Z,3.72
2023-01-20T23:44:16.854Z,5.78
2023-01-20T23:46:45.293Z,4.47
2023-01-20T23:49:12.979Z,4.53
2023-01-20T23:51:41.069Z,4.58
2023-01-20T23:54:11.634Z,4.45
2023-01-20T23:56:39.429Z,4.95
2023-01-20T23:59:07.434Z,4.55
